sensor_id;sensor_type;location;lat;lon;timestamp;P1;durP1;ratioP1;P2;durP2;ratioP2
46551;SDS011;32278;51.810;4.712;2024-03-08T00:00:14;58.83;;;31.67;;
46551;SDS011;32278;51.810;4.712;2024-03-08T00:02:41;57.80;;;31.17;;
46551;SDS011;32278;51.810;4.712;2024-03-08T00:05:08;54.55;;;32.55;;
46551;SDS011;32278;51.810;4.712;2024-03-08T00:07:34;51.95;;;31.25;;
46551;SDS011;32278;51.810;4.712;2024-03-08T00:10:01;59.15;;;32.70;;
46551;SDS011;32278;51.810;4.712;2024-03-08T00:12:27;55.58;;;32.67;;
46551;SDS011;32278;51.810;4.712;2024-03-08T00:14:53;58.38;;;32.88;;
46551;SDS011;32278;51.810;4.712;2024-03-08T00:17:20;56.67;;;30.75;;
46551;SDS011;32278;51.810;4.712;2024-03-08T00:19:47;52.47;;;33.08;;
46551;SDS011;32278;51.810;4.712;2024-03-08T00:22:14;58.13;;;30.17;;
46551;SDS011;32278;51.810;4.712;2024-03-08T00:24:41;55.72;;;32.55;;
46551;SDS011;32278;51.810;4.712;2024-03-08T00:27:07;54.92;;;31.88;;
46551;SDS011;32278;51.810;4.712;2024-03-08T00:29:34;53.60;;;32.17;;
46551;SDS011;32278;51.810;4.712;2024-03-08T00:32:00;58.00;;;33.30;;
46551;SDS011;32278;51.810;4.712;2024-03-08T00:34:26;56.78;;;32.22;;
46551;SDS011;32278;51.810;4.712;2024-03-08T00:36:52;57.67;;;32.22;;
46551;SDS011;32278;51.810;4.712;2024-03-08T00:39:18;55.88;;;31.67;;
46551;SDS011;32278;51.810;4.712;2024-03-08T00:41:47;51.90;;;30.73;;
46551;SDS011;32278;51.810;4.712;2024-03-08T00:44:13;61.45;;;33.25;;
46551;SDS011;32278;51.810;4.712;2024-03-08T00:46:39;52.33;;;30.20;;
46551;SDS011;32278;51.810;4.712;2024-03-08T00:49:05;58.00;;;33.28;;
46551;SDS011;32278;51.810;4.712;2024-03-08T00:51:32;56.97;;;32.42;;
46551;SDS011;32278;51.810;4.712;2024-03-08T00:53:58;53.70;;;31.23;;
46551;SDS011;32278;51.810;4.712;2024-03-08T00:56:24;54.60;;;34.08;;
46551;SDS011;32278;51.810;4.712;2024-03-08T00:58:50;58.58;;;33.42;;
46551;SDS011;32278;51.810;4.712;2024-03-08T01:01:16;59.88;;;32.75;;
46551;SDS011;32278;51.810;4.712;2024-03-08T01:03:44;56.17;;;31.48;;
46551;SDS011;32278;51.810;4.712;2024-03-08T01:06:10;52.22;;;31.58;;
46551;SDS011;32278;51.810;4.712;2024-03-08T01:08:36;56.80;;;33.33;;
46551;SDS011;32278;51.810;4.712;2024-03-08T01:11:07;54.13;;;32.53;;
46551;SDS011;32278;51.810;4.712;2024-03-08T01:13:33;52.90;;;31.30;;
46551;SDS011;32278;51.810;4.712;2024-03-08T01:15:59;52.53;;;32.72;;
46551;SDS011;32278;51.810;4.712;2024-03-08T01:18:25;57.08;;;32.47;;
46551;SDS011;32278;51.810;4.712;2024-03-08T01:20:51;56.28;;;31.58;;
46551;SDS011;32278;51.810;4.712;2024-03-08T01:23:17;53.50;;;31.98;;
46551;SDS011;32278;51.810;4.712;2024-03-08T01:25:43;56.22;;;29.70;;
46551;SDS011;32278;51.810;4.712;2024-03-08T01:28:09;50.22;;;31.05;;
46551;SDS011;32278;51.810;4.712;2024-03-08T01:30:35;53.42;;;31.33;;
46551;SDS011;32278;51.810;4.712;2024-03-08T01:33:02;50.42;;;29.55;;
46551;SDS011;32278;51.810;4.712;2024-03-08T01:35:28;50.63;;;31.58;;
46551;SDS011;32278;51.810;4.712;2024-03-08T01:37:54;49.17;;;30.35;;
46551;SDS011;32278;51.810;4.712;2024-03-08T01:40:21;54.90;;;32.45;;
46551;SDS011;32278;51.810;4.712;2024-03-08T01:42:47;52.65;;;31.40;;
46551;SDS011;32278;51.810;4.712;2024-03-08T01:45:13;53.78;;;31.02;;
46551;SDS011;32278;51.810;4.712;2024-03-08T01:47:39;46.50;;;29.27;;
46551;SDS011;32278;51.810;4.712;2024-03-08T01:50:05;55.17;;;30.63;;
46551;SDS011;32278;51.810;4.712;2024-03-08T01:52:32;60.70;;;33.78;;
46551;SDS011;32278;51.810;4.712;2024-03-08T01:54:59;48.63;;;30.88;;
46551;SDS011;32278;51.810;4.712;2024-03-08T01:57:26;49.70;;;31.00;;
46551;SDS011;32278;51.810;4.712;2024-03-08T01:59:52;49.53;;;30.08;;
46551;SDS011;32278;51.810;4.712;2024-03-08T02:02:20;49.83;;;30.95;;
46551;SDS011;32278;51.810;4.712;2024-03-08T02:04:47;53.33;;;32.70;;
46551;SDS011;32278;51.810;4.712;2024-03-08T02:07:13;48.65;;;29.95;;
46551;SDS011;32278;51.810;4.712;2024-03-08T02:09:39;52.75;;;32.95;;
46551;SDS011;32278;51.810;4.712;2024-03-08T02:12:06;46.92;;;30.58;;
46551;SDS011;32278;51.810;4.712;2024-03-08T02:14:33;50.05;;;30.33;;
46551;SDS011;32278;51.810;4.712;2024-03-08T02:17:02;54.28;;;29.88;;
46551;SDS011;32278;51.810;4.712;2024-03-08T02:19:29;47.40;;;29.50;;
46551;SDS011;32278;51.810;4.712;2024-03-08T02:21:55;46.08;;;29.77;;
46551;SDS011;32278;51.810;4.712;2024-03-08T02:24:21;50.50;;;29.60;;
46551;SDS011;32278;51.810;4.712;2024-03-08T02:26:48;48.95;;;30.75;;
46551;SDS011;32278;51.810;4.712;2024-03-08T02:29:14;50.38;;;30.77;;
46551;SDS011;32278;51.810;4.712;2024-03-08T02:31:40;50.05;;;29.88;;
46551;SDS011;32278;51.810;4.712;2024-03-08T02:34:07;50.33;;;31.88;;
46551;SDS011;32278;51.810;4.712;2024-03-08T02:36:34;54.92;;;32.25;;
46551;SDS011;32278;51.810;4.712;2024-03-08T02:39:03;51.75;;;30.08;;
46551;SDS011;32278;51.810;4.712;2024-03-08T02:41:30;49.83;;;31.73;;
46551;SDS011;32278;51.810;4.712;2024-03-08T02:43:57;48.35;;;30.45;;
46551;SDS011;32278;51.810;4.712;2024-03-08T02:46:23;48.60;;;32.33;;
46551;SDS011;32278;51.810;4.712;2024-03-08T02:48:49;52.10;;;32.47;;
46551;SDS011;32278;51.810;4.712;2024-03-08T02:51:15;47.40;;;30.05;;
46551;SDS011;32278;51.810;4.712;2024-03-08T02:53:41;47.75;;;31.30;;
46551;SDS011;32278;51.810;4.712;2024-03-08T02:56:08;48.38;;;31.25;;
46551;SDS011;32278;51.810;4.712;2024-03-08T02:58:37;48.83;;;31.17;;
46551;SDS011;32278;51.810;4.712;2024-03-08T03:01:04;60.85;;;32.17;;
46551;SDS011;32278;51.810;4.712;2024-03-08T03:03:29;49.10;;;31.80;;
46551;SDS011;32278;51.810;4.712;2024-03-08T03:05:56;50.83;;;32.33;;
46551;SDS011;32278;51.810;4.712;2024-03-08T03:08:21;47.80;;;31.33;;
46551;SDS011;32278;51.810;4.712;2024-03-08T03:10:48;52.55;;;32.95;;
46551;SDS011;32278;51.810;4.712;2024-03-08T03:13:15;53.63;;;33.63;;
46551;SDS011;32278;51.810;4.712;2024-03-08T03:15:41;54.45;;;33.17;;
46551;SDS011;32278;51.810;4.712;2024-03-08T03:18:07;47.53;;;31.65;;
46551;SDS011;32278;51.810;4.712;2024-03-08T03:20:33;53.20;;;33.60;;
46551;SDS011;32278;51.810;4.712;2024-03-08T03:23:05;51.17;;;32.28;;
46551;SDS011;32278;51.810;4.712;2024-03-08T03:25:33;53.55;;;31.77;;
46551;SDS011;32278;51.810;4.712;2024-03-08T03:28:00;52.55;;;32.15;;
46551;SDS011;32278;51.810;4.712;2024-03-08T03:30:27;53.50;;;37.30;;
46551;SDS011;32278;51.810;4.712;2024-03-08T03:32:57;55.97;;;33.85;;
46551;SDS011;32278;51.810;4.712;2024-03-08T03:35:25;54.13;;;32.50;;
46551;SDS011;32278;51.810;4.712;2024-03-08T03:37:51;51.28;;;32.70;;
46551;SDS011;32278;51.810;4.712;2024-03-08T03:40:30;52.05;;;33.10;;
46551;SDS011;32278;51.810;4.712;2024-03-08T03:42:57;51.80;;;33.15;;
46551;SDS011;32278;51.810;4.712;2024-03-08T03:45:23;50.85;;;31.63;;
46551;SDS011;32278;51.810;4.712;2024-03-08T03:47:49;47.15;;;31.00;;
46551;SDS011;32278;51.810;4.712;2024-03-08T03:50:16;51.20;;;33.50;;
46551;SDS011;32278;51.810;4.712;2024-03-08T03:52:44;54.30;;;33.33;;
46551;SDS011;32278;51.810;4.712;2024-03-08T03:55:10;55.03;;;35.10;;
46551;SDS011;32278;51.810;4.712;2024-03-08T03:57:37;48.78;;;32.65;;
46551;SDS011;32278;51.810;4.712;2024-03-08T04:00:03;52.47;;;33.42;;
46551;SDS011;32278;51.810;4.712;2024-03-08T04:02:29;50.03;;;33.50;;
46551;SDS011;32278;51.810;4.712;2024-03-08T04:04:55;48.28;;;32.00;;
46551;SDS011;32278;51.810;4.712;2024-03-08T04:07:21;52.35;;;33.15;;
46551;SDS011;32278;51.810;4.712;2024-03-08T04:09:47;49.03;;;32.45;;
46551;SDS011;32278;51.810;4.712;2024-03-08T04:12:14;50.92;;;32.30;;
46551;SDS011;32278;51.810;4.712;2024-03-08T04:14:41;50.33;;;33.55;;
46551;SDS011;32278;51.810;4.712;2024-03-08T04:17:07;53.60;;;32.38;;
46551;SDS011;32278;51.810;4.712;2024-03-08T04:19:39;47.33;;;33.28;;
46551;SDS011;32278;51.810;4.712;2024-03-08T04:22:06;51.28;;;33.53;;
46551;SDS011;32278;51.810;4.712;2024-03-08T04:24:32;47.95;;;32.45;;
46551;SDS011;32278;51.810;4.712;2024-03-08T04:26:58;62.90;;;34.63;;
46551;SDS011;32278;51.810;4.712;2024-03-08T04:29:24;53.97;;;32.72;;
46551;SDS011;32278;51.810;4.712;2024-03-08T04:31:51;52.83;;;33.30;;
46551;SDS011;32278;51.810;4.712;2024-03-08T04:34:21;52.55;;;35.45;;
46551;SDS011;32278;51.810;4.712;2024-03-08T04:36:47;56.55;;;37.40;;
46551;SDS011;32278;51.810;4.712;2024-03-08T04:39:13;47.92;;;32.70;;
46551;SDS011;32278;51.810;4.712;2024-03-08T04:41:40;51.70;;;34.72;;
46551;SDS011;32278;51.810;4.712;2024-03-08T04:44:08;49.25;;;33.97;;
46551;SDS011;32278;51.810;4.712;2024-03-08T04:46:34;49.75;;;34.38;;
46551;SDS011;32278;51.810;4.712;2024-03-08T04:49:00;52.78;;;36.85;;
46551;SDS011;32278;51.810;4.712;2024-03-08T04:51:26;51.80;;;34.15;;
46551;SDS011;32278;51.810;4.712;2024-03-08T04:53:52;53.05;;;34.40;;
46551;SDS011;32278;51.810;4.712;2024-03-08T04:56:18;53.70;;;34.97;;
46551;SDS011;32278;51.810;4.712;2024-03-08T04:58:44;55.25;;;35.28;;
46551;SDS011;32278;51.810;4.712;2024-03-08T05:01:14;49.20;;;33.67;;
46551;SDS011;32278;51.810;4.712;2024-03-08T05:03:40;57.17;;;34.67;;
46551;SDS011;32278;51.810;4.712;2024-03-08T05:06:06;56.33;;;33.58;;
46551;SDS011;32278;51.810;4.712;2024-03-08T05:08:32;57.13;;;34.58;;
46551;SDS011;32278;51.810;4.712;2024-03-08T05:10:59;59.25;;;37.08;;
46551;SDS011;32278;51.810;4.712;2024-03-08T05:13:28;48.65;;;34.25;;
46551;SDS011;32278;51.810;4.712;2024-03-08T05:15:55;51.45;;;34.38;;
46551;SDS011;32278;51.810;4.712;2024-03-08T05:18:23;54.90;;;35.90;;
46551;SDS011;32278;51.810;4.712;2024-03-08T05:20:49;51.47;;;36.83;;
46551;SDS011;32278;51.810;4.712;2024-03-08T05:23:16;53.38;;;34.55;;
46551;SDS011;32278;51.810;4.712;2024-03-08T05:25:44;55.67;;;36.28;;
46551;SDS011;32278;51.810;4.712;2024-03-08T05:28:11;54.60;;;35.35;;
46551;SDS011;32278;51.810;4.712;2024-03-08T05:30:38;50.13;;;34.47;;
46551;SDS011;32278;51.810;4.712;2024-03-08T05:33:04;56.22;;;34.80;;
46551;SDS011;32278;51.810;4.712;2024-03-08T05:35:30;53.40;;;38.05;;
46551;SDS011;32278;51.810;4.712;2024-03-08T05:37:57;58.35;;;35.58;;
46551;SDS011;32278;51.810;4.712;2024-03-08T05:40:23;51.75;;;34.65;;
46551;SDS011;32278;51.810;4.712;2024-03-08T05:42:49;49.38;;;34.35;;
46551;SDS011;32278;51.810;4.712;2024-03-08T05:45:15;50.28;;;35.95;;
46551;SDS011;32278;51.810;4.712;2024-03-08T05:47:41;51.53;;;35.30;;
46551;SDS011;32278;51.810;4.712;2024-03-08T05:50:07;51.50;;;33.92;;
46551;SDS011;32278;51.810;4.712;2024-03-08T05:52:35;61.15;;;36.22;;
46551;SDS011;32278;51.810;4.712;2024-03-08T05:55:03;55.47;;;36.60;;
46551;SDS011;32278;51.810;4.712;2024-03-08T05:57:32;51.22;;;35.28;;
46551;SDS011;32278;51.810;4.712;2024-03-08T05:59:58;52.13;;;35.97;;
46551;SDS011;32278;51.810;4.712;2024-03-08T06:02:24;55.15;;;37.15;;
46551;SDS011;32278;51.810;4.712;2024-03-08T06:04:50;54.05;;;36.13;;
46551;SDS011;32278;51.810;4.712;2024-03-08T06:07:16;48.85;;;34.40;;
46551;SDS011;32278;51.810;4.712;2024-03-08T06:09:42;56.40;;;37.63;;
46551;SDS011;32278;51.810;4.712;2024-03-08T06:12:11;50.50;;;34.67;;
46551;SDS011;32278;51.810;4.712;2024-03-08T06:14:37;50.15;;;35.45;;
46551;SDS011;32278;51.810;4.712;2024-03-08T06:17:03;55.33;;;37.38;;
46551;SDS011;32278;51.810;4.712;2024-03-08T06:19:32;53.70;;;35.33;;
46551;SDS011;32278;51.810;4.712;2024-03-08T06:21:59;48.67;;;34.03;;
46551;SDS011;32278;51.810;4.712;2024-03-08T06:24:27;55.33;;;36.35;;
46551;SDS011;32278;51.810;4.712;2024-03-08T06:26:53;52.25;;;35.63;;
46551;SDS011;32278;51.810;4.712;2024-03-08T06:29:19;53.25;;;36.45;;
46551;SDS011;32278;51.810;4.712;2024-03-08T06:31:45;48.22;;;35.28;;
46551;SDS011;32278;51.810;4.712;2024-03-08T06:34:11;55.20;;;36.80;;
46551;SDS011;32278;51.810;4.712;2024-03-08T06:36:37;50.70;;;35.20;;
46551;SDS011;32278;51.810;4.712;2024-03-08T06:39:03;52.58;;;36.72;;
46551;SDS011;32278;51.810;4.712;2024-03-08T06:41:34;54.70;;;37.38;;
46551;SDS011;32278;51.810;4.712;2024-03-08T06:44:00;54.38;;;35.97;;
46551;SDS011;32278;51.810;4.712;2024-03-08T06:46:26;55.00;;;34.45;;
46551;SDS011;32278;51.810;4.712;2024-03-08T06:48:52;53.72;;;34.45;;
46551;SDS011;32278;51.810;4.712;2024-03-08T06:51:18;54.83;;;37.75;;
46551;SDS011;32278;51.810;4.712;2024-03-08T06:53:44;52.08;;;36.05;;
46551;SDS011;32278;51.810;4.712;2024-03-08T06:56:10;58.10;;;37.40;;
46551;SDS011;32278;51.810;4.712;2024-03-08T06:58:36;55.53;;;37.40;;
46551;SDS011;32278;51.810;4.712;2024-03-08T07:01:02;53.05;;;34.47;;
46551;SDS011;32278;51.810;4.712;2024-03-08T07:03:32;54.75;;;34.95;;
46551;SDS011;32278;51.810;4.712;2024-03-08T07:05:58;54.17;;;34.85;;
46551;SDS011;32278;51.810;4.712;2024-03-08T07:08:25;55.05;;;35.80;;
46551;SDS011;32278;51.810;4.712;2024-03-08T07:10:52;53.95;;;35.97;;
46551;SDS011;32278;51.810;4.712;2024-03-08T07:13:18;56.53;;;35.67;;
46551;SDS011;32278;51.810;4.712;2024-03-08T07:15:44;52.60;;;34.92;;
46551;SDS011;32278;51.810;4.712;2024-03-08T07:18:10;50.70;;;36.38;;
46551;SDS011;32278;51.810;4.712;2024-03-08T07:20:39;52.00;;;32.75;;
46551;SDS011;32278;51.810;4.712;2024-03-08T07:23:05;52.15;;;33.63;;
46551;SDS011;32278;51.810;4.712;2024-03-08T07:25:31;49.85;;;34.20;;
46551;SDS011;32278;51.810;4.712;2024-03-08T07:27:58;51.92;;;32.95;;
46551;SDS011;32278;51.810;4.712;2024-03-08T07:30:25;55.08;;;35.67;;
46551;SDS011;32278;51.810;4.712;2024-03-08T07:33:10;52.47;;;33.92;;
46551;SDS011;32278;51.810;4.712;2024-03-08T07:35:39;54.30;;;34.38;;
46551;SDS011;32278;51.810;4.712;2024-03-08T07:38:06;57.83;;;35.08;;
46551;SDS011;32278;51.810;4.712;2024-03-08T07:40:36;54.50;;;35.65;;
46551;SDS011;32278;51.810;4.712;2024-03-08T07:43:05;51.75;;;33.67;;
46551;SDS011;32278;51.810;4.712;2024-03-08T07:45:31;49.63;;;35.17;;
46551;SDS011;32278;51.810;4.712;2024-03-08T07:47:57;49.95;;;34.08;;
46551;SDS011;32278;51.810;4.712;2024-03-08T07:50:23;52.28;;;34.50;;
46551;SDS011;32278;51.810;4.712;2024-03-08T07:52:49;49.85;;;33.42;;
46551;SDS011;32278;51.810;4.712;2024-03-08T07:55:16;51.45;;;34.28;;
46551;SDS011;32278;51.810;4.712;2024-03-08T07:57:42;51.13;;;33.50;;
46551;SDS011;32278;51.810;4.712;2024-03-08T08:00:08;53.72;;;34.72;;
46551;SDS011;32278;51.810;4.712;2024-03-08T08:02:34;45.17;;;31.10;;
46551;SDS011;32278;51.810;4.712;2024-03-08T08:05:01;51.50;;;34.75;;
46551;SDS011;32278;51.810;4.712;2024-03-08T08:07:27;52.33;;;33.50;;
46551;SDS011;32278;51.810;4.712;2024-03-08T08:09:53;50.15;;;33.95;;
46551;SDS011;32278;51.810;4.712;2024-03-08T08:12:19;50.30;;;33.53;;
46551;SDS011;32278;51.810;4.712;2024-03-08T08:14:45;48.15;;;32.70;;
46551;SDS011;32278;51.810;4.712;2024-03-08T08:17:12;48.17;;;32.38;;
46551;SDS011;32278;51.810;4.712;2024-03-08T08:19:38;45.38;;;31.60;;
46551;SDS011;32278;51.810;4.712;2024-03-08T08:22:06;44.85;;;30.30;;
46551;SDS011;32278;51.810;4.712;2024-03-08T08:24:33;46.05;;;31.58;;
46551;SDS011;32278;51.810;4.712;2024-03-08T08:27:01;53.38;;;34.25;;
46551;SDS011;32278;51.810;4.712;2024-03-08T08:29:27;46.53;;;32.88;;
46551;SDS011;32278;51.810;4.712;2024-03-08T08:31:53;52.15;;;33.42;;
46551;SDS011;32278;51.810;4.712;2024-03-08T08:34:19;44.65;;;32.35;;
46551;SDS011;32278;51.810;4.712;2024-03-08T08:36:48;42.55;;;29.92;;
46551;SDS011;32278;51.810;4.712;2024-03-08T08:39:14;44.53;;;31.38;;
46551;SDS011;32278;51.810;4.712;2024-03-08T08:41:42;47.70;;;32.38;;
46551;SDS011;32278;51.810;4.712;2024-03-08T08:44:08;46.30;;;31.13;;
46551;SDS011;32278;51.810;4.712;2024-03-08T08:46:35;50.70;;;31.50;;
46551;SDS011;32278;51.810;4.712;2024-03-08T08:49:03;50.15;;;32.28;;
46551;SDS011;32278;51.810;4.712;2024-03-08T08:51:29;46.00;;;30.48;;
46551;SDS011;32278;51.810;4.712;2024-03-08T08:53:56;48.20;;;32.95;;
46551;SDS011;32278;51.810;4.712;2024-03-08T08:56:22;46.00;;;31.60;;
46551;SDS011;32278;51.810;4.712;2024-03-08T08:58:48;42.22;;;29.13;;
46551;SDS011;32278;51.810;4.712;2024-03-08T09:01:14;39.63;;;28.30;;
46551;SDS011;32278;51.810;4.712;2024-03-08T09:03:43;36.53;;;27.10;;
46551;SDS011;32278;51.810;4.712;2024-03-08T09:06:11;36.40;;;26.38;;
46551;SDS011;32278;51.810;4.712;2024-03-08T09:08:40;44.58;;;27.27;;
46551;SDS011;32278;51.810;4.712;2024-03-08T09:11:06;40.90;;;28.92;;
46551;SDS011;32278;51.810;4.712;2024-03-08T09:13:33;44.95;;;28.88;;
46551;SDS011;32278;51.810;4.712;2024-03-08T09:15:59;43.70;;;28.42;;
46551;SDS011;32278;51.810;4.712;2024-03-08T09:18:25;43.25;;;28.58;;
46551;SDS011;32278;51.810;4.712;2024-03-08T09:20:51;40.83;;;28.02;;
46551;SDS011;32278;51.810;4.712;2024-03-08T09:23:21;38.25;;;27.08;;
46551;SDS011;32278;51.810;4.712;2024-03-08T09:25:47;38.30;;;26.95;;
46551;SDS011;32278;51.810;4.712;2024-03-08T09:28:13;39.20;;;26.38;;
46551;SDS011;32278;51.810;4.712;2024-03-08T09:30:41;40.67;;;28.77;;
46551;SDS011;32278;51.810;4.712;2024-03-08T09:33:07;40.45;;;27.60;;
46551;SDS011;32278;51.810;4.712;2024-03-08T09:35:34;41.25;;;27.08;;
46551;SDS011;32278;51.810;4.712;2024-03-08T09:38:01;37.28;;;28.08;;
46551;SDS011;32278;51.810;4.712;2024-03-08T09:40:28;38.10;;;26.38;;
46551;SDS011;32278;51.810;4.712;2024-03-08T09:42:54;40.05;;;26.52;;
46551;SDS011;32278;51.810;4.712;2024-03-08T09:45:22;39.17;;;27.67;;
46551;SDS011;32278;51.810;4.712;2024-03-08T09:47:49;46.90;;;27.65;;
46551;SDS011;32278;51.810;4.712;2024-03-08T09:50:17;40.30;;;28.05;;
46551;SDS011;32278;51.810;4.712;2024-03-08T09:52:44;37.70;;;26.63;;
46551;SDS011;32278;51.810;4.712;2024-03-08T09:55:12;40.75;;;28.27;;
46551;SDS011;32278;51.810;4.712;2024-03-08T09:57:38;39.42;;;27.17;;
46551;SDS011;32278;51.810;4.712;2024-03-08T10:00:05;43.92;;;28.35;;
46551;SDS011;32278;51.810;4.712;2024-03-08T10:02:48;37.50;;;28.20;;
46551;SDS011;32278;51.810;4.712;2024-03-08T10:05:18;41.80;;;26.98;;
46551;SDS011;32278;51.810;4.712;2024-03-08T10:07:47;38.92;;;28.23;;
46551;SDS011;32278;51.810;4.712;2024-03-08T10:10:13;36.83;;;25.67;;
46551;SDS011;32278;51.810;4.712;2024-03-08T10:12:39;37.90;;;26.52;;
46551;SDS011;32278;51.810;4.712;2024-03-08T10:15:08;38.53;;;26.80;;
46551;SDS011;32278;51.810;4.712;2024-03-08T10:17:37;37.83;;;27.48;;
46551;SDS011;32278;51.810;4.712;2024-03-08T10:20:13;39.65;;;27.60;;
46551;SDS011;32278;51.810;4.712;2024-03-08T10:22:40;38.17;;;26.60;;
46551;SDS011;32278;51.810;4.712;2024-03-08T10:25:08;35.22;;;26.98;;
46551;SDS011;32278;51.810;4.712;2024-03-08T10:27:35;35.53;;;25.42;;
46551;SDS011;32278;51.810;4.712;2024-03-08T10:30:02;36.85;;;24.92;;
46551;SDS011;32278;51.810;4.712;2024-03-08T10:32:28;33.55;;;24.30;;
46551;SDS011;32278;51.810;4.712;2024-03-08T10:34:54;36.20;;;26.08;;
46551;SDS011;32278;51.810;4.712;2024-03-08T10:37:21;38.78;;;27.95;;
46551;SDS011;32278;51.810;4.712;2024-03-08T10:40:13;40.60;;;27.08;;
46551;SDS011;32278;51.810;4.712;2024-03-08T10:43:02;40.60;;;25.58;;
46551;SDS011;32278;51.810;4.712;2024-03-08T10:45:38;33.88;;;23.67;;
46551;SDS011;32278;51.810;4.712;2024-03-08T10:50:47;37.17;;;28.30;;
46551;SDS011;32278;51.810;4.712;2024-03-08T10:53:15;36.40;;;25.02;;
46551;SDS011;32278;51.810;4.712;2024-03-08T10:55:41;37.10;;;24.52;;
46551;SDS011;32278;51.810;4.712;2024-03-08T10:58:08;37.55;;;23.92;;
46551;SDS011;32278;51.810;4.712;2024-03-08T11:00:35;37.85;;;25.95;;
46551;SDS011;32278;51.810;4.712;2024-03-08T11:03:02;42.10;;;25.92;;
46551;SDS011;32278;51.810;4.712;2024-03-08T11:05:32;38.03;;;25.80;;
46551;SDS011;32278;51.810;4.712;2024-03-08T11:08:03;32.15;;;23.95;;
46551;SDS011;32278;51.810;4.712;2024-03-08T11:10:29;36.50;;;24.38;;
46551;SDS011;32278;51.810;4.712;2024-03-08T11:12:55;36.78;;;23.17;;
46551;SDS011;32278;51.810;4.712;2024-03-08T11:15:23;32.22;;;22.67;;
46551;SDS011;32278;51.810;4.712;2024-03-08T11:17:50;32.88;;;22.45;;
46551;SDS011;32278;51.810;4.712;2024-03-08T11:20:17;33.50;;;23.48;;
46551;SDS011;32278;51.810;4.712;2024-03-08T11:22:49;40.90;;;24.40;;
46551;SDS011;32278;51.810;4.712;2024-03-08T11:25:36;33.70;;;22.75;;
46551;SDS011;32278;51.810;4.712;2024-03-08T11:28:17;33.88;;;22.10;;
46551;SDS011;32278;51.810;4.712;2024-03-08T11:30:44;32.53;;;22.55;;
46551;SDS011;32278;51.810;4.712;2024-03-08T11:33:13;30.00;;;21.48;;
46551;SDS011;32278;51.810;4.712;2024-03-08T11:35:39;31.35;;;20.58;;
46551;SDS011;32278;51.810;4.712;2024-03-08T11:38:07;30.70;;;21.10;;
46551;SDS011;32278;51.810;4.712;2024-03-08T11:40:33;28.85;;;20.20;;
46551;SDS011;32278;51.810;4.712;2024-03-08T11:43:00;26.58;;;20.10;;
46551;SDS011;32278;51.810;4.712;2024-03-08T11:45:29;29.20;;;21.15;;
46551;SDS011;32278;51.810;4.712;2024-03-08T11:47:55;27.08;;;19.30;;
46551;SDS011;32278;51.810;4.712;2024-03-08T11:50:21;27.60;;;20.88;;
46551;SDS011;32278;51.810;4.712;2024-03-08T11:52:48;23.08;;;18.17;;
46551;SDS011;32278;51.810;4.712;2024-03-08T11:55:15;30.40;;;19.55;;
46551;SDS011;32278;51.810;4.712;2024-03-08T11:57:41;31.08;;;20.10;;
46551;SDS011;32278;51.810;4.712;2024-03-08T12:00:14;28.23;;;18.55;;
46551;SDS011;32278;51.810;4.712;2024-03-08T12:02:46;28.25;;;18.10;;
46551;SDS011;32278;51.810;4.712;2024-03-08T12:05:15;24.50;;;19.00;;
46551;SDS011;32278;51.810;4.712;2024-03-08T12:07:41;26.90;;;19.50;;
46551;SDS011;32278;51.810;4.712;2024-03-08T12:10:14;27.98;;;20.40;;
46551;SDS011;32278;51.810;4.712;2024-03-08T12:12:44;26.65;;;20.08;;
46551;SDS011;32278;51.810;4.712;2024-03-08T12:15:11;26.55;;;18.48;;
46551;SDS011;32278;51.810;4.712;2024-03-08T12:17:37;29.38;;;20.15;;
46551;SDS011;32278;51.810;4.712;2024-03-08T12:20:37;27.55;;;19.90;;
46551;SDS011;32278;51.810;4.712;2024-03-08T12:22:57;24.75;;;19.60;;
46551;SDS011;32278;51.810;4.712;2024-03-08T12:25:29;27.77;;;18.63;;
46551;SDS011;32278;51.810;4.712;2024-03-08T12:27:56;26.95;;;19.45;;
46551;SDS011;32278;51.810;4.712;2024-03-08T12:30:26;27.58;;;18.77;;
46551;SDS011;32278;51.810;4.712;2024-03-08T12:32:55;27.48;;;19.33;;
46551;SDS011;32278;51.810;4.712;2024-03-08T12:35:25;25.48;;;18.20;;
46551;SDS011;32278;51.810;4.712;2024-03-08T12:37:58;24.73;;;18.30;;
46551;SDS011;32278;51.810;4.712;2024-03-08T12:40:25;24.92;;;18.50;;
46551;SDS011;32278;51.810;4.712;2024-03-08T12:42:52;25.45;;;19.13;;
46551;SDS011;32278;51.810;4.712;2024-03-08T12:45:18;27.52;;;19.85;;
46551;SDS011;32278;51.810;4.712;2024-03-08T12:47:47;27.35;;;18.45;;
46551;SDS011;32278;51.810;4.712;2024-03-08T12:50:12;27.10;;;19.15;;
46551;SDS011;32278;51.810;4.712;2024-03-08T12:52:41;26.63;;;19.25;;
46551;SDS011;32278;51.810;4.712;2024-03-08T12:55:07;25.85;;;18.85;;
46551;SDS011;32278;51.810;4.712;2024-03-08T12:57:34;26.42;;;18.67;;
46551;SDS011;32278;51.810;4.712;2024-03-08T13:00:01;25.25;;;17.38;;
46551;SDS011;32278;51.810;4.712;2024-03-08T13:02:27;21.73;;;16.48;;
46551;SDS011;32278;51.810;4.712;2024-03-08T13:04:55;26.42;;;18.05;;
46551;SDS011;32278;51.810;4.712;2024-03-08T13:07:22;27.73;;;20.63;;
46551;SDS011;32278;51.810;4.712;2024-03-08T13:09:51;25.25;;;18.50;;
46551;SDS011;32278;51.810;4.712;2024-03-08T13:12:17;25.85;;;19.90;;
46551;SDS011;32278;51.810;4.712;2024-03-08T13:14:45;30.02;;;19.75;;
46551;SDS011;32278;51.810;4.712;2024-03-08T13:17:11;27.98;;;19.15;;
46551;SDS011;32278;51.810;4.712;2024-03-08T13:19:37;29.17;;;19.67;;
46551;SDS011;32278;51.810;4.712;2024-03-08T13:22:04;26.42;;;19.70;;
46551;SDS011;32278;51.810;4.712;2024-03-08T13:24:30;30.13;;;19.42;;
46551;SDS011;32278;51.810;4.712;2024-03-08T13:26:56;26.10;;;20.02;;
46551;SDS011;32278;51.810;4.712;2024-03-08T13:29:23;28.98;;;20.30;;
46551;SDS011;32278;51.810;4.712;2024-03-08T13:31:49;28.50;;;19.42;;
46551;SDS011;32278;51.810;4.712;2024-03-08T13:34:19;28.05;;;20.17;;
46551;SDS011;32278;51.810;4.712;2024-03-08T13:36:54;26.83;;;20.52;;
46551;SDS011;32278;51.810;4.712;2024-03-08T13:39:24;30.60;;;20.08;;
46551;SDS011;32278;51.810;4.712;2024-03-08T13:41:51;30.13;;;19.55;;
46551;SDS011;32278;51.810;4.712;2024-03-08T13:44:17;28.92;;;21.10;;
46551;SDS011;32278;51.810;4.712;2024-03-08T13:46:43;26.70;;;20.38;;
46551;SDS011;32278;51.810;4.712;2024-03-08T13:49:09;28.58;;;21.05;;
46551;SDS011;32278;51.810;4.712;2024-03-08T13:51:35;28.75;;;21.67;;
46551;SDS011;32278;51.810;4.712;2024-03-08T13:54:02;29.83;;;21.55;;
46551;SDS011;32278;51.810;4.712;2024-03-08T13:56:31;31.23;;;21.83;;
46551;SDS011;32278;51.810;4.712;2024-03-08T13:58:57;30.40;;;21.70;;
46551;SDS011;32278;51.810;4.712;2024-03-08T14:01:23;26.75;;;20.48;;
46551;SDS011;32278;51.810;4.712;2024-03-08T14:03:50;32.47;;;20.95;;
46551;SDS011;32278;51.810;4.712;2024-03-08T14:06:16;32.17;;;22.48;;
46551;SDS011;32278;51.810;4.712;2024-03-08T14:08:42;28.13;;;21.00;;
46551;SDS011;32278;51.810;4.712;2024-03-08T14:11:08;30.67;;;20.98;;
46551;SDS011;32278;51.810;4.712;2024-03-08T14:13:44;28.92;;;20.10;;
46551;SDS011;32278;51.810;4.712;2024-03-08T14:18:36;30.92;;;20.35;;
46551;SDS011;32278;51.810;4.712;2024-03-08T14:21:03;31.02;;;20.52;;
46551;SDS011;32278;51.810;4.712;2024-03-08T14:23:29;31.50;;;21.88;;
46551;SDS011;32278;51.810;4.712;2024-03-08T14:25:55;29.88;;;21.80;;